Latest Weather Observations for Jabiru

IDD60801

Issued at 8:31 am CST Sunday 19 November 2017 (issued every 30 minutes, with the page automatically refreshed every 10 minutes)

About weather observations | Map of weather stations | Latest weather observations for NT | Other Formats
Station Details ID: 014198 Name: JABIRU AIRPORT Lat: -12.66 Lon: 132.89 Height: 26.5 m
Data from the previous 72 hours. | See also: Recent months at Jabiru
Date/Time
CST
Temp
°C
App
Temp
°C
Dew
Point
°C
Rel
Hum
%
Delta-T
°C
Wind Press
QNH
hPa
Press
MSL
hPa
Rain since
9am
mm
Dir  Spd
km/h
Gust
km/h
Spd
kts
Gust
kts
19/08:30am 29.9 34.5 23.8 70 4.2 SE 6 9 3 5 1010.0 1009.7 5.8
19/08:00am 28.9 33.0 23.3 72 3.8 SE 7 11 4 6 1009.9 1009.6 5.8
19/07:30am 27.8 32.4 23.2 76 3.1 ESE 4 9 2 5 1009.6 1009.3 5.8
19/07:00am 26.1 31.2 23.4 85 1.8 SW 2 6 1 3 1009.2 1008.9 5.8
19/06:30am 25.2 30.5 23.1 88 1.4 CALM 0 0 0 0 1008.6 1008.3 5.8
19/06:00am 25.1 30.4 23.0 88 1.4 CALM 0 0 0 0 1008.3 1008.0 5.8
19/05:30am 25.1 29.0 23.0 88 1.4 E 7 9 4 5 1008.2 1007.9 5.8
19/05:00am 25.2 29.4 23.1 88 1.4 ENE 6 7 3 4 1008.1 1007.8 5.8
19/04:30am 25.5 31.1 24.3 93 0.8 S 2 7 1 4 1007.9 1007.7 5.8
19/04:00am 25.2 30.9 23.8 92 1.0 CALM 0 0 0 0 1008.2 1007.9 5.8
19/03:30am 25.0 30.2 23.6 92 1.0 SSW 2 6 1 3 1008.1 1007.8 5.8
19/03:00am 25.2 29.6 23.8 92 1.0 SSW 7 9 4 5 1008.1 1007.8 5.8
19/02:30am 25.4 30.5 23.3 88 1.4 SSW 2 7 1 4 1008.2 1007.9 5.8
19/02:00am 25.7 30.1 23.4 87 1.6 W 6 7 3 4 1008.4 1008.1 5.8
19/01:30am 25.7 29.8 23.0 85 1.8 SW 6 7 3 4 1008.7 1008.4 5.8
19/01:00am 25.9 30.8 22.4 81 2.4 CALM 0 0 0 0 1009.1 1008.8 5.8
19/12:30am 26.0 30.9 22.3 80 2.5 CALM 0 0 0 0 1009.3 1009.0 5.8
19/12:00am 26.2 29.8 22.1 78 2.8 S 6 6 3 3 1009.5 1009.2 5.8
 
Date/Time
CST
Temp
°C
App
Temp
°C
Dew
Point
°C
Rel
Hum
%
Delta-T
°C
Wind Press
QNH
hPa
Press
MSL
hPa
Rain since
9am
mm
Dir  Spd
km/h
Gust
km/h
Spd
kts
Gust
kts
18/11:30pm 26.3 31.0 22.6 80 2.5 SSE 2 7 1 4 1009.6 1009.3 5.8
18/11:00pm 26.3 31.2 23.0 82 2.2 SSW 2 9 1 5 1009.4 1009.1 5.8
18/10:30pm 26.4 29.8 22.0 77 3.0 SW 7 9 4 5 1009.6 1009.3 5.8
18/10:00pm 26.7 30.0 21.5 73 3.5 ESE 6 7 3 4 1009.2 1008.9 5.8
18/09:30pm 27.0 29.2 21.1 70 3.9 ESE 11 13 6 7 1009.2 1008.9 5.8
18/09:00pm 27.1 28.3 21.4 71 3.8 E 17 24 9 13 1008.9 1008.6 5.8
18/08:30pm 27.5 28.1 21.3 69 4.1 ENE 20 32 11 17 1008.7 1008.4 5.8
18/08:04pm 30.0 29.5 20.8 57 6.1 ENE 24 57 13 31 1008.2 1007.9 5.8
18/08:00pm 31.1 32.0 21.6 57 6.4 NE 19 35 10 19 1007.9 1007.7 5.8
18/07:30pm 31.2 33.7 21.7 57 6.4 NNE 11 17 6 9 1007.1 1006.9 5.8
18/07:00pm 31.7 33.5 21.2 53 7.1 NNE 13 19 7 10 1006.5 1006.3 5.8
18/06:30pm 32.3 35.1 21.5 53 7.3 N 9 19 5 10 1006.0 1005.8 5.8
18/06:00pm 32.9 35.4 21.7 51 7.6 NNE 11 15 6 8 1005.6 1005.4 5.8
18/05:30pm 33.9 35.4 21.3 47 8.5 NNE 15 24 8 13 1005.2 1005.0 5.8
18/05:00pm 34.6 36.3 21.6 46 8.8 NE 15 22 8 12 1005.0 1004.8 5.8
18/04:30pm 35.3 36.0 20.4 41 10.0 ENE 17 22 9 12 1004.8 1004.6 5.8
18/04:00pm 34.8 38.3 22.8 49 8.3 NE 9 13 5 7 1005.0 1004.8 5.8
18/03:30pm 33.6 38.3 23.3 55 7.2 NNE 4 7 2 4 1005.4 1005.2 5.8
18/03:00pm 30.7 34.0 23.9 67 4.7 WNW 13 15 7 8 1005.8 1005.6 5.8
18/02:30pm 31.3 35.0 23.9 64 5.2 W 11 13 6 7 1006.2 1006.0 5.8
18/02:00pm 30.8 34.7 24.2 68 4.6 WSW 11 15 6 8 1006.6 1006.4 5.6
18/01:30pm 30.8 34.6 22.7 62 5.6 SSW 7 11 4 6 1007.0 1006.8 5.6
18/01:00pm 29.0 30.2 22.2 66 4.6 N 19 39 10 21 1007.8 1007.6 5.6
18/12:52pm 28.9 28.9 21.7 65 4.8 ENE 24 39 13 21 1008.3 1008.0 3.8
18/12:30pm 33.7 36.4 22.1 50 7.9 E 11 17 6 9 1008.3 1008.0 0.0
18/12:00pm 34.4 38.8 23.4 52 7.7 ESE 6 13 3 7 1008.8 1008.5 0.0
18/11:30am 33.8 36.0 22.6 52 7.7 ENE 15 22 8 12 1009.3 1009.0 0.0
18/11:00am 32.6 36.7 23.3 58 6.4 E 7 17 4 9 1009.7 1009.4 0.0
18/10:30am 31.8 35.3 22.8 59 6.2 NNE 9 15 5 8 1009.9 1009.6 0.0
18/10:00am 31.4 34.6 23.0 61 5.8 NE 11 20 6 11 1010.2 1009.9 0.0
18/09:30am 30.4 34.4 23.1 65 5.0 NE 7 17 4 9 1010.5 1010.2 0.0
18/09:00am 29.7 33.4 23.2 68 4.5 ENE 9 15 5 8 1010.4 1010.1 0.2
18/08:30am 29.2 33.3 23.2 70 4.1 E 7 13 4 7 1010.0 1009.7 0.2
18/08:00am 27.8 31.2 22.7 74 3.5 E 9 15 5 8 1009.9 1009.6 0.2
18/07:30am 27.1 30.7 23.1 79 2.7 ESE 9 13 5 7 1009.7 1009.4 0.2
18/07:00am 26.3 30.5 23.4 84 2.0 SE 7 9 4 5 1009.5 1009.2 0.2
18/06:30am 25.0 29.2 23.4 91 1.1 E 7 11 4 6 1008.9 1008.6 0.2
18/06:00am 24.5 28.6 22.9 91 1.1 E 6 7 3 4 1008.6 1008.3 0.2
18/05:30am 24.7 29.2 22.9 90 1.2 ESE 4 9 2 5 1008.1 1007.8 0.0
18/05:00am 24.9 30.3 23.3 91 1.1 CALM 0 0 0 0 1007.7 1007.5 0.0
18/04:30am 25.0 29.7 23.4 91 1.1 WSW 4 7 2 4 1007.8 1007.6 0.0
18/04:00am 25.3 30.8 23.4 89 1.3 CALM 0 0 0 0 1007.8 1007.6 0.0
18/03:30am 25.5 30.9 23.2 87 1.6 CALM 0 4 0 2 1007.8 1007.6 0.0
18/03:00am 25.4 30.0 23.1 87 1.6 S 4 7 2 4 1007.8 1007.6 0.0
18/02:30am 25.2 29.2 22.7 86 1.7 ESE 6 7 3 4 1008.3 1008.0 0.0
18/02:00am 25.5 30.7 22.8 85 1.8 CALM 0 4 0 2 1008.5 1008.2 0.0
18/01:30am 25.5 30.2 22.6 84 2.0 ENE 2 7 1 4 1008.6 1008.3 0.0
18/01:00am 25.7 30.4 22.6 83 2.1 NW 2 7 1 4 1008.8 1008.5 0.0
18/12:30am 25.6 30.2 22.5 83 2.1 SSW 2 7 1 4 1009.0 1008.7 0.0
18/12:00am 25.7 29.3 22.0 80 2.5 S 6 9 3 5 1009.3 1009.0 0.0
 
Date/Time
CST
Temp
°C
App
Temp
°C
Dew
Point
°C
Rel
Hum
%
Delta-T
°C
Wind Press
QNH
hPa
Press
MSL
hPa
Rain since
9am
mm
Dir  Spd
km/h
Gust
km/h
Spd
kts
Gust
kts
17/11:30pm 25.6 28.9 21.9 80 2.5 SE 7 11 4 6 1009.8 1009.5 0.0
17/11:00pm 25.7 29.3 22.0 80 2.5 ESE 6 9 3 5 1010.2 1009.9 0.0
17/10:30pm 26.1 29.2 22.2 79 2.6 ESE 9 15 5 8 1010.5 1010.2 0.0
17/10:00pm 26.4 28.7 22.0 77 2.9 ESE 13 20 7 11 1010.3 1010.0 0.0
17/09:30pm 26.7 29.3 24.0 85 1.9 E 17 28 9 15 1010.1 1009.8 0.0
17/09:00pm 26.4 30.2 24.1 87 1.6 E 11 19 6 10 1009.6 1009.3 0.0
17/08:30pm 26.0 30.0 23.7 87 1.6 ESE 9 13 5 7 1009.3 1009.0 0.0
17/08:00pm 26.2 30.0 23.5 85 1.8 E 9 13 5 7 1008.8 1008.5 0.0
17/07:30pm 26.2 29.4 23.1 83 2.1 ESE 11 13 6 7 1008.5 1008.2 0.0
17/07:00pm 27.4 31.1 22.6 75 3.3 ENE 7 9 4 5 1007.6 1007.4 0.0
17/06:30pm 27.9 33.2 23.1 75 3.3 CALM 0 0 0 0 1007.3 1007.1 0.0
17/06:00pm 28.2 31.8 23.1 74 3.5 S 9 15 5 8 1007.4 1007.2 0.0
17/05:30pm 29.1 33.1 22.8 69 4.3 SW 6 9 3 5 1007.5 1007.3 0.0
17/05:00pm 29.1 32.2 22.8 69 4.3 WNW 11 13 6 7 1006.8 1006.6 0.0
17/04:30pm 29.1 32.2 22.1 66 4.7 WNW 9 15 5 8 1006.4 1006.2 0.0
17/04:00pm 29.0 30.8 22.5 68 4.4 N 17 22 9 12 1006.2 1006.0 0.0
17/03:30pm 28.9 30.2 24.0 75 3.4 N 24 37 13 20 1005.9 1005.7 0.0
17/03:00pm 30.6 30.1 22.2 61 5.7 N 28 39 15 21 1006.6 1006.4 0.0
17/02:48pm 31.3 31.8 21.2 55 6.8 N 20 41 11 22 1006.4 1006.2 0.0
17/02:30pm 34.4 36.9 22.5 50 8.2 NNE 13 17 7 9 1006.1 1005.9 0.0
17/02:00pm 33.7 36.2 21.8 49 8.1 N 11 19 6 10 1006.7 1006.5 0.0
17/01:30pm 34.0 35.9 22.1 50 8.2 NE 15 33 8 18 1007.0 1006.8 0.0
17/01:00pm 34.0 36.2 21.8 49 8.3 NE 13 17 7 9 1007.5 1007.3 0.0
17/12:30pm 33.4 35.2 21.9 51 7.8 ENE 15 22 8 12 1007.9 1007.7 0.0
17/12:00pm 33.3 36.3 23.3 55 6.9 NE 13 19 7 10 1008.7 1008.4 0.0
17/11:30am 32.2 35.2 22.6 57 6.6 NE 11 17 6 9 1009.2 1008.9 0.0
17/11:00am 31.5 35.6 23.3 61 5.7 ESE 7 20 4 11 1009.5 1009.2 0.0
17/10:30am 30.9 34.0 22.2 59 5.9 ENE 9 15 5 8 1009.7 1009.4 0.0
17/10:00am 30.4 34.4 23.1 65 5.0 E 7 15 4 8 1010.0 1009.7 0.0
17/09:30am 30.0 33.4 22.7 65 5.0 ENE 9 11 5 6 1010.0 1009.7 0.0
17/09:00am 28.8 32.9 23.2 71 3.8 ESE 7 11 4 6 1010.0 1009.7 41.6
17/08:30am 27.7 32.0 23.3 77 3.0 ENE 6 9 3 5 1010.2 1009.9 41.6
17/08:00am 26.9 31.9 23.8 83 2.1 SW 4 6 2 3 1009.9 1009.6 41.6
17/07:30am 25.9 31.7 23.9 89 1.4 CALM 0 4 0 2 1009.7 1009.4 41.6
17/07:00am 25.4 29.7 23.6 90 1.2 SW 7 9 4 5 1009.5 1009.2 41.6
17/06:30am 25.5 30.9 25.2 98 0.2 SSW 6 7 3 4 1009.4 1009.1 41.6
17/06:00am 25.3 30.0 23.9 92 1.0 S 6 7 3 4 1009.0 1008.7 41.6
17/05:30am 25.6 32.0 24.9 96 0.5 CALM 0 0 0 0 1008.8 1008.5 41.6
17/05:00am 25.5 31.8 24.8 96 0.5 CALM 0 0 0 0 1008.7 1008.4 41.6
17/04:30am 25.4 31.2 24.5 95 0.6 S 2 7 1 4 1008.6 1008.3 41.6
17/04:00am 25.4 30.5 24.0 92 1.0 SSW 4 7 2 4 1008.3 1008.0 41.6
17/03:30am 25.7 31.8 24.5 93 0.8 CALM 0 2 0 1 1007.9 1007.7 41.6
17/03:00am 25.5 31.1 24.3 93 0.8 SSE 2 7 1 4 1007.9 1007.7 41.6
17/02:30am 25.7 31.0 24.3 92 1.0 E 4 7 2 4 1008.1 1007.8 41.6
17/02:00am 25.8 30.6 24.2 91 1.1 E 6 9 3 5 1008.2 1007.9 41.6
17/01:30am 25.8 30.6 24.4 92 1.0 E 7 9 4 5 1008.8 1008.5 41.6
17/01:00am 25.9 30.6 24.9 94 0.7 ESE 9 13 5 7 1009.5 1009.2 41.4
17/12:30am 25.7 31.0 25.0 96 0.5 ESE 6 7 3 4 1009.8 1009.5 41.4
17/12:00am 25.7 31.3 24.8 95 0.6 S 4 6 2 3 1010.1 1009.8 41.2
 
Date/Time
CST
Temp
°C
App
Temp
°C
Dew
Point
°C
Rel
Hum
%
Delta-T
°C
Wind Press
QNH
hPa
Press
MSL
hPa
Rain since
9am
mm
Dir  Spd
km/h
Gust
km/h
Spd
kts
Gust
kts
16/11:30pm 25.7 32.2 25.0 96 0.5 CALM 0 0 0 0 1010.2 1009.9 41.2
16/11:00pm 25.7 32.0 24.7 94 0.7 CALM 0 0 0 0 1010.0 1009.7 41.2
16/10:30pm 25.7 31.8 24.5 93 0.8 CALM 0 0 0 0 1010.0 1009.7 41.2
16/10:00pm 25.6 31.3 24.4 93 0.8 NE 2 6 1 3 1009.7 1009.4 41.2
16/09:30pm 25.8 31.8 24.9 95 0.6 SE 2 7 1 4 1009.5 1009.2 41.2
16/09:00pm 25.4 31.1 24.4 94 0.7 S 2 6 1 3 1009.3 1009.0 41.2
16/08:30pm 25.4 31.4 24.2 93 0.8 CALM 0 0 0 0 1008.8 1008.5 41.2
16/08:00pm 25.5 30.8 24.3 93 0.8 NE 4 6 2 3 1008.3 1008.0 41.2
16/07:30pm 25.3 31.1 23.9 92 1.0 CALM 0 0 0 0 1008.2 1007.9 41.2
16/07:00pm 25.4 30.0 24.2 93 0.8 NNW 7 7 4 4 1008.1 1007.8 41.2
16/06:30pm 25.6 31.3 23.7 89 1.3 CALM 0 0 0 0 1008.1 1007.8 41.2
16/06:00pm 25.5 30.4 23.6 89 1.3 S 4 7 2 4 1007.6 1007.4 41.2
16/05:30pm 25.2 29.7 23.6 91 1.1 SSE 6 7 3 4 1007.4 1007.2 41.2
16/05:00pm 25.0 29.6 23.8 93 0.8 SE 6 7 3 4 1007.2 1007.0 41.2
16/04:30pm 24.6 29.1 23.6 94 0.7 ESE 6 9 3 5 1007.0 1006.8 41.2
16/04:00pm 24.2 28.1 22.6 91 1.1 NNW 6 9 3 5 1007.0 1006.8 40.2
16/03:30pm 23.8 26.9 22.8 94 0.7 N 11 17 6 9 1007.0 1006.8 39.8
16/03:00pm 23.5 24.8 22.7 95 0.5 N 20 32 11 17 1006.8 1006.6 39.0
16/02:30pm 23.3 25.8 21.7 91 1.1 N 11 15 6 8 1007.1 1006.9 34.6
16/02:00pm 23.7 23.8 21.8 89 1.3 SE 24 43 13 23 1007.7 1007.5 14.2
16/01:49pm 26.6 26.2 20.2 68 4.2 SE 22 50 12 27 1007.2 1007.0 0.0
16/01:46pm 28.6 29.5 20.1 60 5.6 ESE 15 39 8 21 1006.9 1006.7 0.0
16/01:30pm 32.8 35.6 22.3 54 7.2 NW 11 15 6 8 1006.3 1006.1 0.0
16/01:00pm 31.3 33.5 22.6 60 6.0 NNW 15 19 8 10 1007.0 1006.8 0.0
16/12:30pm 31.2 34.0 23.0 61 5.6 N 13 20 7 11 1007.6 1007.4 0.0
16/12:00pm 32.4 35.5 22.2 55 7.0 SSE 9 15 5 8 1008.2 1007.9 0.0
16/11:30am 32.3 35.2 22.4 56 6.8 ENE 11 19 6 10 1008.8 1008.5 0.0
16/11:00am 31.8 35.5 22.5 58 6.4 ENE 7 13 4 7 1009.2 1008.9 0.0
16/10:30am 30.4 33.9 22.8 64 5.2 NW 9 13 5 7 1009.7 1009.4 0.0
16/10:00am 29.8 34.2 23.5 69 4.3 NE 6 9 3 5 1009.8 1009.5 0.0
16/09:30am 29.8 34.6 24.2 72 3.9 SSE 6 9 3 5 1009.9 1009.6 0.0
16/09:00am 28.5 32.4 23.6 75 3.4 E 9 13 5 7 1010.0 1009.7 1.6

Other Formats:

Comma delimited format used in spreadsheet applications
http://www.bom.gov.au/fwo/IDD60801/IDD60801.94137.axf

JavaScript Object Notation format (JSON) in row-major order
http://www.bom.gov.au/fwo/IDD60801/IDD60801.94137.json